createdAt,value
2022-11-16T00:00:11.461Z,99971.17
2022-11-16T00:03:05.857Z,99960.98
2022-11-16T00:05:38.083Z,99966.56
2022-11-16T00:08:10.154Z,99966.61
2022-11-16T00:10:42.242Z,99965.66
2022-11-16T00:13:14.576Z,99967.55
2022-11-16T00:15:54.568Z,99970.58
2022-11-16T00:18:26.954Z,99975.23
2022-11-16T00:20:59.350Z,99981.02
2022-11-16T00:23:31.872Z,99971.91
2022-11-16T00:26:08.143Z,99971.94
2022-11-16T00:28:40.698Z,99971.96
2022-11-16T00:31:13.752Z,99970.28
2022-11-16T00:33:45.896Z,99965.60
2022-11-16T00:36:18.206Z,99969.49
2022-11-16T00:38:52.975Z,99973.58
2022-11-16T00:41:25.422Z,99967.08
2022-11-16T00:43:56.180Z,99966.77
2022-11-16T00:46:28.270Z,99969.58
2022-11-16T00:49:00.529Z,99974.52
2022-11-16T00:51:34.046Z,99977.62
2022-11-16T00:54:08.107Z,99976.85
2022-11-16T00:56:41.477Z,99974.30
2022-11-16T00:59:13.793Z,99969.16
2022-11-16T01:01:47.452Z,99968.98
2022-11-16T01:04:19.789Z,99969.98
2022-11-16T01:06:51.974Z,99969.97
2022-11-16T01:09:24.291Z,99971.74
2022-11-16T01:12:12.784Z,99970.33
2022-11-16T01:14:47.431Z,99966.20
2022-11-16T01:17:19.590Z,99968.92
2022-11-16T01:19:52.241Z,99960.02
2022-11-16T01:22:24.451Z,99959.42
2022-11-16T01:24:56.808Z,99955.46
2022-11-16T01:27:29.177Z,99955.77
2022-11-16T01:30:03.224Z,99956.14
2022-11-16T01:32:35.811Z,99954.56
2022-11-16T01:35:07.903Z,99953.48
2022-11-16T01:37:40.219Z,99949.10
2022-11-16T01:40:14.222Z,99950.97
2022-11-16T01:42:48.169Z,99948.66
2022-11-16T01:45:25.228Z,99949.02
2022-11-16T01:48:00.419Z,99948.15
2022-11-16T01:50:37.733Z,99947.54
2022-11-16T01:53:13.495Z,99943.88
2022-11-16T01:55:57.630Z,99945.48
2022-11-16T01:58:48.203Z,99942.44
2022-11-16T02:01:28.131Z,99941.89
2022-11-16T02:04:01.076Z,99940.39
2022-11-16T02:06:50.540Z,99937.41
2022-11-16T02:09:57.384Z,99936.13
2022-11-16T02:12:53.376Z,99937.45
2022-11-16T02:15:33.813Z,99934.70
2022-11-16T02:18:33.866Z,99933.13
2022-11-16T02:21:21.686Z,99926.02
2022-11-16T02:24:32.619Z,99927.72
2022-11-16T02:27:34.416Z,99930.31
2022-11-16T02:30:08.276Z,99929.33
2022-11-16T02:32:51.699Z,99928.02
2022-11-16T02:35:30.387Z,99924.61
2022-11-16T02:38:10.175Z,99928.66
2022-11-16T02:40:46.428Z,99925.79
2022-11-16T02:43:26.875Z,99925.27
2022-11-16T02:46:04.225Z,99921.34
2022-11-16T02:48:41.460Z,99917.30
2022-11-16T02:51:14.621Z,99920.31
2022-11-16T02:54:04.000Z,99921.95
2022-11-16T02:56:49.584Z,99919.69
2022-11-16T02:59:25.335Z,99921.13
2022-11-16T03:02:12.281Z,99922.73
2022-11-16T03:04:48.435Z,99923.42
2022-11-16T03:07:24.711Z,99922.64
2022-11-16T03:09:58.998Z,99919.46
2022-11-16T03:12:36.775Z,99920.33
2022-11-16T03:15:13.271Z,99917.34
2022-11-16T03:17:47.538Z,99919.17
2022-11-16T03:20:26.891Z,99919.08
2022-11-16T03:23:02.472Z,99915.57
2022-11-16T03:25:41.107Z,99912.51
2022-11-16T03:28:20.333Z,99914.48
2022-11-16T03:30:55.480Z,99914.13
2022-11-16T03:33:31.618Z,99913.50
2022-11-16T03:36:08.648Z,99909.48
2022-11-16T03:38:43.115Z,99907.30
2022-11-16T03:41:16.363Z,99903.52
2022-11-16T03:43:48.084Z,99902.01
2022-11-16T03:46:21.719Z,99900.73
2022-11-16T03:48:59.426Z,99894.15
2022-11-16T03:51:33.521Z,99894.01
2022-11-16T03:54:06.054Z,99889.46
2022-11-16T03:56:38.523Z,99887.34
2022-11-16T03:59:10.566Z,99884.86
2022-11-16T04:01:44.861Z,99879.57
2022-11-16T04:04:31.684Z,99878.33
2022-11-16T04:07:20.976Z,99874.16
2022-11-16T04:10:10.233Z,99878.80
2022-11-16T04:13:03.368Z,99876.86
2022-11-16T04:16:04.485Z,99879.74
2022-11-16T04:18:54.200Z,99875.70
2022-11-16T04:21:49.456Z,99873.88
2022-11-16T04:24:24.629Z,99874.20
2022-11-16T04:27:17.845Z,99871.05
2022-11-16T04:29:48.339Z,99864.77
2022-11-16T04:32:38.163Z,99860.79
2022-11-16T04:35:27.508Z,99855.02
2022-11-16T04:38:00.919Z,99855.40
2022-11-16T04:40:35.787Z,99852.17
2022-11-16T04:43:07.886Z,99850.14
2022-11-16T04:46:00.649Z,99847.95
2022-11-16T04:48:38.518Z,99847.46
2022-11-16T04:51:10.374Z,99845.73
2022-11-16T04:53:43.225Z,99840.96
2022-11-16T04:56:21.444Z,99838.37
2022-11-16T04:58:53.670Z,99835.58
2022-11-16T05:01:39.885Z,99829.30
2022-11-16T05:04:12.713Z,99825.04
2022-11-16T05:06:44.412Z,99824.54
2022-11-16T05:09:16.420Z,99828.05
2022-11-16T05:11:48.092Z,99819.59
2022-11-16T05:14:20.901Z,99814.80
2022-11-16T05:16:53.270Z,99811.50
2022-11-16T05:19:50.864Z,99804.91
2022-11-16T05:22:23.152Z,99802.15
2022-11-16T05:24:55.315Z,99802.80
2022-11-16T05:27:30.098Z,99803.72
2022-11-16T05:30:02.670Z,99806.61
2022-11-16T05:32:35.128Z,99806.55
2022-11-16T05:35:07.566Z,99809.68
2022-11-16T05:37:39.675Z,99812.83
2022-11-16T05:40:13.570Z,99808.98
2022-11-16T05:42:55.819Z,99809.38
2022-11-16T05:45:27.105Z,99816.27
2022-11-16T05:47:58.766Z,99817.02
2022-11-16T05:50:31.460Z,99818.04
2022-11-16T05:53:13.975Z,99820.90
2022-11-16T05:55:46.163Z,99818.78
2022-11-16T05:58:17.941Z,99821.12
2022-11-16T06:00:51.097Z,99817.42
2022-11-16T06:03:23.757Z,99816.30
2022-11-16T06:05:57.558Z,99819.02
2022-11-16T06:08:31.777Z,99820.62
2022-11-16T06:11:07.095Z,99822.69
2022-11-16T06:13:40.097Z,99823.02
2022-11-16T06:16:12.941Z,99825.89
2022-11-16T06:18:46.660Z,99823.95
2022-11-16T06:21:20.276Z,99816.91
2022-11-16T06:23:52.198Z,99824.46
2022-11-16T06:26:23.960Z,99822.27
2022-11-16T06:28:56.124Z,99820.04
2022-11-16T06:31:28.309Z,99819.32
2022-11-16T06:34:00.910Z,99819.92
2022-11-16T06:36:33.270Z,99817.27
2022-11-16T06:39:05.392Z,99816.14
2022-11-16T06:41:41.589Z,99820.05
2022-11-16T06:44:14.277Z,99820.09
2022-11-16T06:46:54.039Z,99820.24
2022-11-16T06:49:25.829Z,99825.91
2022-11-16T06:51:58.885Z,99820.50
2022-11-16T06:54:30.896Z,99819.70
2022-11-16T06:57:02.635Z,99816.10
2022-11-16T06:59:34.799Z,99817.80
2022-11-16T07:02:06.666Z,99817.31
2022-11-16T07:04:40.401Z,99813.34
2022-11-16T07:07:12.592Z,99823.23
2022-11-16T07:09:44.571Z,99825.86
2022-11-16T07:12:16.509Z,99819.76
2022-11-16T07:14:48.720Z,99823.71
2022-11-16T07:17:23.440Z,99821.73
2022-11-16T07:19:56.846Z,99819.79
2022-11-16T07:22:28.650Z,99816.56
2022-11-16T07:25:00.398Z,99820.49
2022-11-16T07:27:32.619Z,99820.31
2022-11-16T07:30:05.632Z,99821.23
2022-11-16T07:32:50.005Z,99822.67
2022-11-16T07:35:31.140Z,99824.30
2022-11-16T07:38:03.177Z,99829.13
2022-11-16T07:40:35.594Z,99825.88
2022-11-16T07:43:07.298Z,99825.19
2022-11-16T07:46:30.200Z,99830.18
2022-11-16T07:48:55.342Z,99835.44
2022-11-16T07:51:47.554Z,99833.71
2022-11-16T07:54:40.035Z,99830.96
2022-11-16T07:57:12.282Z,99827.64
2022-11-16T07:59:45.225Z,99829.12
2022-11-16T08:02:17.097Z,99833.85
2022-11-16T08:04:49.284Z,99829.24
2022-11-16T08:07:21.044Z,99832.98
2022-11-16T08:09:57.101Z,99830.84
2022-11-16T08:12:28.946Z,99824.36
2022-11-16T08:15:01.589Z,99826.83
2022-11-16T08:17:33.344Z,99827.05
2022-11-16T08:20:05.424Z,99825.80
2022-11-16T08:22:37.126Z,99829.69
2022-11-16T08:25:10.266Z,99830.40
2022-11-16T08:27:47.779Z,99834.42
2022-11-16T08:30:22.955Z,99832.77
2022-11-16T08:32:54.710Z,99829.14
2022-11-16T08:35:26.388Z,99826.64
2022-11-16T08:37:58.390Z,99829.89
2022-11-16T08:40:30.929Z,99830.20
2022-11-16T08:43:02.580Z,99827.78
2022-11-16T08:45:35.027Z,99825.39
2022-11-16T08:48:07.418Z,99820.77
2022-11-16T08:51:10.009Z,99819.43
2022-11-16T08:53:31.864Z,99823.67
2022-11-16T08:56:11.674Z,99829.84
2022-11-16T08:58:46.982Z,99831.92
2022-11-16T09:01:22.941Z,99835.05
2022-11-16T09:03:54.920Z,99836.35
2022-11-16T09:06:28.337Z,99838.42
2022-11-16T09:09:01.013Z,99838.41
2022-11-16T09:11:33.062Z,99838.29
2022-11-16T09:14:04.914Z,99841.48
2022-11-16T09:16:36.672Z,99838.25
2022-11-16T09:19:09.088Z,99836.30
2022-11-16T09:21:40.777Z,99845.30
2022-11-16T09:24:17.927Z,99846.62
2022-11-16T09:26:49.617Z,99846.50
2022-11-16T09:29:21.297Z,99844.07
2022-11-16T09:31:52.955Z,99839.99
2022-11-16T09:34:25.015Z,99842.50
2022-11-16T09:36:56.894Z,99839.30
2022-11-16T09:39:32.247Z,99835.02
2022-11-16T09:42:16.613Z,99832.19
2022-11-16T09:45:06.217Z,99834.98
2022-11-16T09:47:51.876Z,99830.82
2022-11-16T09:50:32.305Z,99825.52
2022-11-16T09:53:13.719Z,99824.06
2022-11-16T09:55:52.055Z,99823.94
2022-11-16T09:58:30.505Z,99820.90
2022-11-16T10:01:08.871Z,99823.64
2022-11-16T10:03:45.283Z,99818.70
2022-11-16T10:06:23.629Z,99821.58
2022-11-16T10:08:57.624Z,99822.08
2022-11-16T10:11:44.568Z,99812.95
2022-11-16T10:14:35.673Z,99813.87
2022-11-16T10:17:14.285Z,99814.73
2022-11-16T10:19:54.135Z,99808.48
2022-11-16T10:22:42.427Z,99812.61
2022-11-16T10:25:20.460Z,99810.20
2022-11-16T10:28:22.352Z,99806.34
2022-11-16T10:31:04.040Z,99804.67
2022-11-16T10:33:39.342Z,99801.08
2022-11-16T10:36:15.966Z,99804.51
2022-11-16T10:38:48.148Z,99804.45
2022-11-16T10:41:25.941Z,99803.66
2022-11-16T10:44:00.377Z,99801.94
2022-11-16T10:46:36.596Z,99799.31
2022-11-16T10:49:17.433Z,99802.58
2022-11-16T10:51:49.051Z,99800.50
2022-11-16T10:54:21.112Z,99799.40
2022-11-16T10:57:03.413Z,99796.97
2022-11-16T10:59:43.649Z,99795.65
2022-11-16T11:02:34.697Z,99795.77
2022-11-16T11:05:20.264Z,99795.81
2022-11-16T11:08:01.705Z,99794.13
2022-11-16T11:10:35.863Z,99792.29
2022-11-16T11:13:23.883Z,99786.51
2022-11-16T11:16:16.746Z,99790.52
2022-11-16T11:18:48.466Z,99792.70
2022-11-16T11:21:25.607Z,99795.04
2022-11-16T11:24:16.129Z,99794.94
2022-11-16T11:26:55.625Z,99787.45
2022-11-16T11:29:31.194Z,99789.95
2022-11-16T11:32:07.727Z,99793.79
2022-11-16T11:34:45.326Z,99790.34
2022-11-16T11:37:20.273Z,99791.77
2022-11-16T11:40:08.336Z,99790.39
2022-11-16T11:42:44.102Z,99789.64
2022-11-16T11:45:18.802Z,99784.27
2022-11-16T11:47:59.421Z,99779.62
2022-11-16T11:50:42.331Z,99783.05
2022-11-16T11:53:31.460Z,99781.81
2022-11-16T11:56:03.494Z,99784.27
2022-11-16T11:58:40.148Z,99783.15
2022-11-16T12:01:55.101Z,99783.79
2022-11-16T12:05:09.067Z,99779.90
2022-11-16T12:07:56.891Z,99779.02
2022-11-16T12:10:39.168Z,99775.73
2022-11-16T12:13:32.457Z,99774.93
2022-11-16T12:16:15.143Z,99767.00
2022-11-16T12:19:01.726Z,99766.73
2022-11-16T12:21:45.715Z,99765.63
2022-11-16T12:24:36.467Z,99759.80
2022-11-16T12:27:17.816Z,99759.27
2022-11-16T12:30:01.052Z,99761.41
2022-11-16T12:32:53.007Z,99754.11
2022-11-16T12:35:40.089Z,99749.83
2022-11-16T12:38:35.036Z,99749.13
2022-11-16T12:41:26.629Z,99747.19
2022-11-16T12:44:00.894Z,99752.35
2022-11-16T12:46:44.660Z,99751.83
2022-11-16T12:49:49.946Z,99751.98
2022-11-16T12:52:42.025Z,99755.73
2022-11-16T12:55:32.289Z,99748.83
2022-11-16T12:58:20.388Z,99744.40
2022-11-16T13:01:04.558Z,99744.62
2022-11-16T13:03:45.260Z,99742.45
2022-11-16T13:06:20.986Z,99742.51
2022-11-16T13:09:04.287Z,99741.25
2022-11-16T13:11:39.682Z,99740.38
2022-11-16T13:14:18.340Z,99738.68
2022-11-16T13:16:51.354Z,99741.79
2022-11-16T13:19:23.620Z,99738.48
2022-11-16T13:22:03.179Z,99732.27
2022-11-16T13:24:49.372Z,99732.66
2022-11-16T13:27:37.234Z,99730.48
2022-11-16T13:30:19.211Z,99733.22
2022-11-16T13:33:08.504Z,99737.16
2022-11-16T13:35:40.841Z,99737.61
2022-11-16T13:38:14.306Z,99734.34
2022-11-16T13:40:46.157Z,99735.71
2022-11-16T13:43:22.592Z,99736.77
2022-11-16T13:45:58.270Z,99730.80
2022-11-16T13:48:34.622Z,99730.21
2022-11-16T13:51:10.380Z,99727.60
2022-11-16T13:54:43.491Z,99728.82
2022-11-16T13:56:52.502Z,99728.59
2022-11-16T13:59:30.568Z,99728.18
2022-11-16T14:02:05.186Z,99732.83
2022-11-16T14:04:55.101Z,99730.28
2022-11-16T14:07:43.234Z,99726.37
2022-11-16T14:11:06.853Z,99729.48
2022-11-16T14:13:45.611Z,99727.42
2022-11-16T14:16:48.306Z,99729.89
2022-11-16T14:19:55.554Z,99727.55
2022-11-16T14:22:59.252Z,99730.52
2022-11-16T14:25:41.220Z,99730.96
2022-11-16T14:28:24.260Z,99734.08
2022-11-16T14:31:01.345Z,99734.27
2022-11-16T14:33:37.223Z,99733.65
2022-11-16T14:36:11.464Z,99732.91
2022-11-16T14:38:44.772Z,99734.41
2022-11-16T14:41:24.137Z,99731.52
2022-11-16T14:43:58.568Z,99735.19
2022-11-16T14:46:34.956Z,99733.15
2022-11-16T14:49:13.533Z,99735.16
2022-11-16T14:51:48.594Z,99737.26
2022-11-16T14:54:29.647Z,99737.60
2022-11-16T14:57:04.124Z,99737.81
2022-11-16T14:59:36.156Z,99740.95
2022-11-16T15:02:26.709Z,99733.73
2022-11-16T15:04:59.617Z,99736.09
2022-11-16T15:07:32.584Z,99732.58
2022-11-16T15:10:04.537Z,99734.14
2022-11-16T15:12:42.969Z,99733.06
2022-11-16T15:15:19.229Z,99732.86
2022-11-16T15:18:09.021Z,99728.94
2022-11-16T15:20:51.203Z,99733.33
2022-11-16T15:23:27.656Z,99727.79
2022-11-16T15:26:03.715Z,99732.47
2022-11-16T15:28:35.806Z,99726.50
2022-11-16T15:31:09.518Z,99728.88
2022-11-16T15:33:45.068Z,99733.52
2022-11-16T15:36:32.367Z,99732.88
2022-11-16T15:39:06.751Z,99727.49
2022-11-16T15:41:40.629Z,99730.90
2022-11-16T15:44:16.605Z,99724.66
2022-11-16T15:46:52.758Z,99732.60
2022-11-16T15:49:31.399Z,99729.27
2022-11-16T15:52:03.809Z,99734.07
2022-11-16T15:55:01.174Z,99735.39
2022-11-16T15:57:33.053Z,99731.23
2022-11-16T16:00:05.610Z,99734.70
2022-11-16T16:02:37.415Z,99736.27
2022-11-16T16:05:23.784Z,99740.23
2022-11-16T16:07:59.541Z,99741.45
2022-11-16T16:10:31.323Z,99736.89
2022-11-16T16:13:04.372Z,99731.94
2022-11-16T16:15:37.878Z,99734.41
2022-11-16T16:18:40.129Z,99730.77
2022-11-16T16:21:15.223Z,99724.42
2022-11-16T16:23:53.590Z,99729.67
2022-11-16T16:26:25.697Z,99725.45
2022-11-16T16:28:58.605Z,99725.31
2022-11-16T16:31:30.555Z,99728.27
2022-11-16T16:34:12.933Z,99728.17
2022-11-16T16:36:44.615Z,99735.23
2022-11-16T16:39:16.326Z,99740.26
2022-11-16T16:41:48.395Z,99736.34
2022-11-16T16:44:20.435Z,99736.57
2022-11-16T16:46:53.302Z,99743.70
2022-11-16T16:49:25.046Z,99739.64
2022-11-16T16:51:56.774Z,99742.07
2022-11-16T16:54:29.430Z,99740.16
2022-11-16T16:57:01.393Z,99746.02
2022-11-16T16:59:33.183Z,99741.84
2022-11-16T17:02:06.540Z,99742.38
2022-11-16T17:04:38.330Z,99736.58
2022-11-16T17:07:09.973Z,99738.66
2022-11-16T17:09:42.177Z,99744.06
2022-11-16T17:12:13.859Z,99747.98
2022-11-16T17:14:51.302Z,99756.02
2022-11-16T17:17:24.315Z,99753.52
2022-11-16T17:19:59.525Z,99756.52
2022-11-16T17:22:33.969Z,99757.94
2022-11-16T17:25:06.188Z,99755.00
2022-11-16T17:27:37.983Z,99753.89
2022-11-16T17:30:12.514Z,99755.36
2022-11-16T17:32:44.521Z,99756.41
2022-11-16T17:35:16.940Z,99763.06
2022-11-16T17:37:48.588Z,99760.70
2022-11-16T17:40:22.222Z,99766.30
2022-11-16T17:42:54.313Z,99766.93
2022-11-16T17:45:26.064Z,99770.65
2022-11-16T17:47:57.747Z,99769.50
2022-11-16T17:50:29.709Z,99769.35
2022-11-16T17:53:01.769Z,99774.83
2022-11-16T17:55:33.769Z,99773.96
2022-11-16T17:58:05.483Z,99769.74
2022-11-16T18:00:37.571Z,99768.83
2022-11-16T18:03:09.424Z,99771.14
2022-11-16T18:05:41.274Z,99770.14
2022-11-16T18:08:16.754Z,99772.44
2022-11-16T18:10:48.764Z,99768.74
2022-11-16T18:13:20.465Z,99771.97
2022-11-16T18:15:52.459Z,99771.89
2022-11-16T18:18:25.602Z,99772.06
2022-11-16T18:20:58.372Z,99773.86
2022-11-16T18:23:30.872Z,99774.11
2022-11-16T18:26:03.556Z,99778.30
2022-11-16T18:28:36.396Z,99773.66
2022-11-16T18:31:07.752Z,99773.02
2022-11-16T18:33:40.416Z,99777.95
2022-11-16T18:36:13.814Z,99777.52
2022-11-16T18:38:45.691Z,99785.05
2022-11-16T18:41:21.008Z,99784.39
2022-11-16T18:43:55.045Z,99792.27
2022-11-16T18:46:28.010Z,99789.09
2022-11-16T18:49:00.369Z,99792.58
2022-11-16T18:51:32.145Z,99792.94
2022-11-16T18:54:04.041Z,99788.29
2022-11-16T18:56:36.273Z,99785.84
2022-11-16T18:59:08.876Z,99786.83
2022-11-16T19:01:41.378Z,99786.15
2022-11-16T19:04:15.576Z,99788.72
2022-11-16T19:06:48.421Z,99788.77
2022-11-16T19:09:20.951Z,99784.48
2022-11-16T19:11:53.049Z,99778.88
2022-11-16T19:14:25.150Z,99777.48
2022-11-16T19:16:57.481Z,99782.77
2022-11-16T19:19:29.910Z,99783.60
2022-11-16T19:22:01.722Z,99787.55
2022-11-16T19:24:34.017Z,99795.15
2022-11-16T19:27:04.877Z,99800.46
2022-11-16T19:29:37.774Z,99802.55
2022-11-16T19:32:09.777Z,99803.16
2022-11-16T19:34:41.504Z,99805.67
2022-11-16T19:37:14.026Z,99805.51
2022-11-16T19:39:46.336Z,99808.41
2022-11-16T19:42:18.506Z,99808.04
2022-11-16T19:44:50.741Z,99798.80
2022-11-16T19:47:26.351Z,99803.28
2022-11-16T19:49:59.386Z,99799.49
2022-11-16T19:52:30.068Z,99800.02
2022-11-16T19:55:02.265Z,99798.10
2022-11-16T19:57:34.431Z,99798.89
2022-11-16T20:00:09.261Z,99797.60
2022-11-16T20:02:41.313Z,99800.25
2022-11-16T20:05:13.287Z,99799.44
2022-11-16T20:07:46.942Z,99802.15
2022-11-16T20:10:19.363Z,99803.23
2022-11-16T20:12:52.025Z,99800.36
2022-11-16T20:15:25.382Z,99806.37
2022-11-16T20:17:58.919Z,99806.98
2022-11-16T20:20:31.614Z,99808.98
2022-11-16T20:23:07.870Z,99809.52
2022-11-16T20:25:45.348Z,99810.64
2022-11-16T20:28:18.269Z,99807.39
2022-11-16T20:30:51.371Z,99811.60
2022-11-16T20:33:24.655Z,99806.14
2022-11-16T20:36:04.220Z,99810.87
2022-11-16T20:38:37.557Z,99800.02
2022-11-16T20:41:15.098Z,99802.59
2022-11-16T20:43:49.363Z,99802.25
2022-11-16T20:46:23.162Z,99799.70
2022-11-16T20:48:57.240Z,99795.13
2022-11-16T20:51:31.412Z,99793.21
2022-11-16T20:54:05.544Z,99793.42
2022-11-16T20:56:38.803Z,99789.98
2022-11-16T20:59:11.107Z,99788.29
2022-11-16T21:01:47.780Z,99786.46
2022-11-16T21:04:21.691Z,99788.60
2022-11-16T21:06:55.689Z,99790.70
2022-11-16T21:09:28.181Z,99794.34
2022-11-16T21:12:18.449Z,99794.50
2022-11-16T21:14:53.231Z,99794.74
2022-11-16T21:17:25.766Z,99792.70
2022-11-16T21:20:25.355Z,99787.64
2022-11-16T21:22:50.825Z,99784.63
2022-11-16T21:25:23.273Z,99782.37
2022-11-16T21:27:55.392Z,99792.56
2022-11-16T21:30:27.406Z,99787.84
2022-11-16T21:32:59.121Z,99785.48
2022-11-16T21:35:31.266Z,99786.73
2022-11-16T21:38:03.795Z,99783.75
2022-11-16T21:40:36.227Z,99788.98
2022-11-16T21:43:07.869Z,99794.11
2022-11-16T21:45:39.956Z,99799.19
2022-11-16T21:48:12.213Z,99797.46
2022-11-16T21:50:45.278Z,99797.70
2022-11-16T21:53:17.104Z,99798.80
2022-11-16T21:55:52.532Z,99797.92
2022-11-16T21:58:24.311Z,99795.00
2022-11-16T22:01:00.378Z,99801.23
2022-11-16T22:03:35.834Z,99802.92
2022-11-16T22:06:31.251Z,99803.68
2022-11-16T22:09:04.788Z,99801.02
2022-11-16T22:11:36.891Z,99803.52
2022-11-16T22:14:09.463Z,99806.47
2022-11-16T22:16:40.506Z,99812.09
2022-11-16T22:19:12.861Z,99809.05
2022-11-16T22:21:45.823Z,99815.45
2022-11-16T22:24:18.370Z,99818.36
2022-11-16T22:26:50.749Z,99815.31
2022-11-16T22:29:22.725Z,99807.47
2022-11-16T22:31:55.123Z,99806.55
2022-11-16T22:34:27.595Z,99802.01
2022-11-16T22:36:59.491Z,99799.81
2022-11-16T22:39:31.874Z,99798.48
2022-11-16T22:42:04.681Z,99796.38
2022-11-16T22:44:36.791Z,99795.28
2022-11-16T22:47:10.139Z,99795.19
2022-11-16T22:49:42.111Z,99796.81
2022-11-16T22:52:14.729Z,99796.61
2022-11-16T22:54:47.101Z,99794.27
2022-11-16T22:57:20.004Z,99790.27
2022-11-16T22:59:52.134Z,99790.05
2022-11-16T23:02:25.008Z,99787.55
2022-11-16T23:04:58.286Z,99789.16
2022-11-16T23:07:30.581Z,99790.30
2022-11-16T23:10:03.631Z,99786.02
2022-11-16T23:12:52.938Z,99787.02
2022-11-16T23:15:48.521Z,99783.22
2022-11-16T23:18:21.107Z,99786.58
2022-11-16T23:21:09.098Z,99784.92
2022-11-16T23:23:58.517Z,99775.09
2022-11-16T23:27:03.122Z,99770.27
2022-11-16T23:29:34.988Z,99771.47
2022-11-16T23:32:08.206Z,99772.38
2022-11-16T23:34:40.794Z,99775.19
2022-11-16T23:37:13.406Z,99775.95
2022-11-16T23:39:46.503Z,99770.16
2022-11-16T23:42:32.572Z,99768.40
2022-11-16T23:45:04.780Z,99766.05
2022-11-16T23:47:37.663Z,99764.59
2022-11-16T23:50:10.357Z,99766.73
2022-11-16T23:52:40.541Z,99773.02
2022-11-16T23:55:12.906Z,99774.78
2022-11-16T23:57:44.625Z,99770.98
